createdAt,value
2023-09-29T00:02:56.274Z,95.59
2023-09-29T00:13:00.686Z,96.44
2023-09-29T00:23:04.042Z,96.81
2023-09-29T00:33:08.493Z,95.86
2023-09-29T00:43:12.552Z,97.08
2023-09-29T00:53:19.124Z,97.06
2023-09-29T01:03:22.260Z,97.40
2023-09-29T01:13:26.479Z,98.19
2023-09-29T01:23:32.785Z,98.95
2023-09-29T01:33:35.929Z,97.89
2023-09-29T01:43:40.731Z,97.54
2023-09-29T01:53:43.943Z,98.84
2023-09-29T02:03:49.488Z,98.90
2023-09-29T02:13:52.457Z,98.00
2023-09-29T02:23:56.626Z,99.45
2023-09-29T02:33:59.883Z,99.52
2023-09-29T02:44:04.116Z,100.00
2023-09-29T02:54:07.881Z,100.00
2023-09-29T03:04:12.872Z,100.00
2023-09-29T03:14:17.292Z,100.00
2023-09-29T03:24:21.460Z,100.00
2023-09-29T03:34:24.863Z,100.00
2023-09-29T03:44:29.074Z,100.00
2023-09-29T03:54:31.796Z,100.00
2023-09-29T04:04:36.071Z,100.00
2023-09-29T04:14:38.874Z,100.00
2023-09-29T04:24:43.595Z,100.00
2023-09-29T04:34:46.481Z,100.00
2023-09-29T04:44:50.648Z,100.00
2023-09-29T04:54:53.431Z,100.00
2023-09-29T05:04:57.522Z,100.00
2023-09-29T05:15:00.407Z,100.00
2023-09-29T05:25:05.456Z,100.00
2023-09-29T05:35:09.770Z,100.00
2023-09-29T05:45:14.224Z,100.00
2023-09-29T05:55:17.095Z,100.00
2023-09-29T06:05:21.969Z,100.00
2023-09-29T06:15:25.356Z,100.00
2023-09-29T06:25:29.498Z,100.00
2023-09-29T06:35:32.626Z,100.00
2023-09-29T06:45:57.098Z,100.00
2023-09-29T06:56:00.271Z,100.00
2023-09-29T07:06:04.585Z,100.00
2023-09-29T07:16:07.426Z,100.00
2023-09-29T07:26:11.565Z,98.72
2023-09-29T07:36:14.394Z,93.72
2023-09-29T07:46:18.593Z,94.59
2023-09-29T07:56:21.411Z,88.29
2023-09-29T08:06:26.669Z,82.05
2023-09-29T08:16:29.564Z,84.12
2023-09-29T08:26:33.852Z,87.43
2023-09-29T08:36:36.611Z,85.07
2023-09-29T08:46:42.117Z,83.66
2023-09-29T08:56:46.064Z,81.47
2023-09-29T09:06:50.472Z,81.08
2023-09-29T09:16:53.251Z,78.89
2023-09-29T09:27:03.683Z,72.12
2023-09-29T09:37:07.781Z,72.68
2023-09-29T09:47:15.490Z,70.47
2023-09-29T09:57:21.397Z,65.41
2023-09-29T10:07:26.692Z,64.21
2023-09-29T10:17:40.712Z,54.47
2023-09-29T10:27:50.559Z,55.16
2023-09-29T10:37:56.753Z,51.24
2023-09-29T10:48:04.459Z,53.45
2023-09-29T10:58:07.879Z,48.01
2023-09-29T11:08:14.199Z,45.60
2023-09-29T11:18:30.574Z,49.22
2023-09-29T11:28:34.828Z,52.81
2023-09-29T11:38:37.839Z,59.82
2023-09-29T11:48:43.437Z,66.11
2023-09-29T11:58:46.341Z,70.76
2023-09-29T12:08:50.742Z,72.03
2023-09-29T12:18:53.687Z,72.25
2023-09-29T12:28:57.930Z,66.61
2023-09-29T12:39:02.510Z,66.94
2023-09-29T12:49:07.350Z,65.82
2023-09-29T12:59:12.211Z,59.84
2023-09-29T13:09:17.094Z,61.44
2023-09-29T13:19:22.936Z,61.74
2023-09-29T13:29:28.992Z,58.28
2023-09-29T13:39:31.746Z,59.62
2023-09-29T13:49:35.983Z,58.74
2023-09-29T13:59:38.863Z,60.40
2023-09-29T14:09:43.220Z,59.62
2023-09-29T14:19:46.539Z,61.59
2023-09-29T14:29:51.331Z,64.06
2023-09-29T14:39:55.523Z,65.44
2023-09-29T14:50:00.718Z,66.83
2023-09-29T15:00:06.001Z,66.65
2023-09-29T15:10:11.134Z,66.80
2023-09-29T15:20:16.214Z,67.38
2023-09-29T15:30:20.500Z,67.73
2023-09-29T15:40:23.334Z,67.49
2023-09-29T15:50:27.432Z,68.98
2023-09-29T16:00:30.724Z,67.98
2023-09-29T16:10:36.356Z,68.81
2023-09-29T16:20:39.213Z,70.35
2023-09-29T16:30:44.004Z,71.84
2023-09-29T16:40:51.726Z,73.39
2023-09-29T16:50:55.947Z,74.18
2023-09-29T17:00:59.465Z,74.91
2023-09-29T17:11:12.806Z,76.12
2023-09-29T17:21:17.030Z,76.72
2023-09-29T17:31:21.316Z,78.17
2023-09-29T17:41:24.517Z,79.91
2023-09-29T17:51:28.614Z,81.56
2023-09-29T18:01:31.943Z,87.16
2023-09-29T18:11:36.279Z,99.98
2023-09-29T18:21:39.082Z,100.00
2023-09-29T18:31:43.652Z,100.00
2023-09-29T18:41:46.416Z,100.00
2023-09-29T18:51:50.559Z,100.00
2023-09-29T19:01:53.369Z,100.00
2023-09-29T19:12:02.894Z,100.00
2023-09-29T19:22:05.732Z,100.00
2023-09-29T19:32:09.893Z,100.00
2023-09-29T19:42:12.667Z,100.00
2023-09-29T19:52:17.038Z,100.00
2023-09-29T20:02:19.864Z,98.01
2023-09-29T20:12:24.047Z,97.15
2023-09-29T20:22:26.867Z,97.18
2023-09-29T20:32:31.114Z,94.09
2023-09-29T20:42:33.927Z,93.04
2023-09-29T20:52:38.634Z,93.99
2023-09-29T21:02:42.562Z,93.91
2023-09-29T21:12:47.214Z,96.23
2023-09-29T21:22:53.969Z,98.44
2023-09-29T21:32:58.655Z,98.87
2023-09-29T21:43:01.596Z,99.21
2023-09-29T21:53:05.809Z,100.00
2023-09-29T22:03:09.547Z,98.95
2023-09-29T22:13:13.916Z,98.40
2023-09-29T22:23:18.189Z,98.76
2023-09-29T22:33:22.547Z,97.85
2023-09-29T22:43:25.324Z,98.42
2023-09-29T22:53:29.515Z,98.09
2023-09-29T23:03:32.412Z,98.62
2023-09-29T23:13:38.570Z,98.09
2023-09-29T23:23:42.050Z,97.77
2023-09-29T23:33:46.175Z,96.33
2023-09-29T23:43:49.310Z,97.16
2023-09-29T23:53:53.328Z,96.76
